Accueil
METAR-TAF:

METAR-TAF

Aéroports :

Akulivik, Québec, Canada

latitude: 60-49N, longitude: 078-09W, altitude: 20 m

Observation

Le bulletin a été fait il y a 1 heure et 10 minutes, à 20:00 UTC
Vent 11 kt de sud-est
Température -3°C
Humidité 74%
Pression 1012 hPa
Visibilité: 24.1 km
Ciel couvert à une hauteur de 1700 ft

METAR: CYKO 242000Z 14011KT 15SM OVC017 M03/M07 A2987 RMK SC8 CIG RAG SLP120

Heure: 17:10 (21:10 UTC)


TAF: absent

Observations et prévisions météorologiques de plus de 4000 aéroports (messages METAR et TAF).

Les stations disponibles sont représentées par des disques jaunes et rouges sur la carte.

Passer la souris dessus pour voir le nom de la station.

Cliquer dessus pour voir les observations et prévisions météorologiques.

Pour changer de carte: cliquez sur les boutons verts avec une croix noire pour zoomer, sur le bouton vert avec un tiret pour effectuer un zoom arrière, ou sur les flèches vertes pour les cartes adjacentes.


METAR-TAF: